Georgetown, MA (01833)

3:42 PM EST on January 27, 2015 (GMT -0500)
APRSWXNET Boxford MA US | Change Station
CLOSE
Current Station
Personal Weather Station
Location: Boxford, MA
Elevation: 164 ft
Nearby Weather Stations
Active Advisory: Blizzard Warning Active Notice: Public Information Statement

Elev 164 ft 42.70 °N, 71.02 °W | Updated 50 minutes ago

Snow
Snow
16 °F
Feels Like 16 °F
N
3
Wind Variable Wind from NW
Gusts 8.0 mph

Today
High -- | Low -- °F
--% Chance of Precip.
Yesterday
High -- | Low -- °F
Precip. -- in
7:03 AM 4:50 PM
First Quarter, 57% visible
Pressure 29.54 in
Visibility 0.5 miles
Clouds
Windchill 16 °F
Dew Point 14 °F
Humidity 90%
Rainfall 0.00 in
Snow Depth Not available.
UV Not available.
Pollen .10 out of 12
Air Quality Not available.
Flu Activity Not available.
SPECI KLWM 272003Z AUTO 35015G22KT 1/2SM SN FZFG VV010 M09/M11 A2954 RMK AO2 P0000 T10891111 $

More Conditions Fewer Conditions

Pressure 29.54 in
Visibility 0.5 miles
Clouds
Windchill 16 °F
Dew Point 14 °F
Humidity 90%
Rainfall 0.00 in
Snow Depth Not available.
UV Not available.
Pollen .10 out of 12
Air Quality Not available.
Flu Activity Not available.
SPECI KLWM 272003Z AUTO 35015G22KT 1/2SM SN FZFG VV010 M09/M11 A2954 RMK AO2 P0000 T10891111 $

More Conditions Fewer Conditions

10-Day Weather Forecast

Almanac

Astronomy

Jan. 27, 2015 Rise Set
Actual Time
Civil Twilight
Nautical Twilight
Astronomical Twilight
Moon
Length of Visible Light
Length of Day
Tomorrow will be .
, % of the Moon is Illuminated

Today's Extremes

State Highs State Lows

Community

WunderPhotos

Upload Photos

1,790,900 photos uploaded!

WunderBlogs® & News

Nearby

Air Quality

  Air Quality AQ Index Pollutant
Not available.

Snow Depth

Station Depth Elevation

Earthquake Activity

City Distance Mag. Time & Date
Minimum magnitude displayed is 2.5.

Coastal Water Temperatures

Place Temperature

Nearby Weather Stations